Time;durP1;ratioP1;P1;durP2;ratioP2;P2;SDS_P1;SDS_P2;PMS_P1;PMS_P2;Temp;Humidity;BMP_temperature;BMP_pressure;BME280_temperature;BME280_humidity;BME280_pressure;Samples;Min_cycle;Max_cycle;Signal;HPM_P1;HPM_P2
2023/09/17 00:00:39;;;;;;;1999.90;999.90;;;16.00;90.10;;;;;;5030325;28;20038;-72
2023/09/17 00:03:05;;;;;;;1999.90;999.90;;;15.90;90.30;;;;;;5035128;28;20029;-72
2023/09/17 00:05:35;;;;;;;1999.90;999.90;;;15.80;90.30;;;;;;5037293;28;20032;-72
2023/09/17 00:08:00;;;;;;;1999.90;999.90;;;15.70;90.70;;;;;;5028652;28;20068;-72
2023/09/17 00:10:26;;;;;;;1999.90;999.90;;;15.70;90.70;;;;;;5039064;28;20059;-71
2023/09/17 00:12:54;;;;;;;1999.90;999.90;;;15.70;91.00;;;;;;5038426;28;20064;-72
2023/09/17 00:15:21;;;;;;;1999.90;999.90;;;15.60;91.20;;;;;;5035756;28;20702;-72
2023/09/17 00:17:46;;;;;;;1999.90;999.90;;;15.60;91.10;;;;;;5040363;28;20036;-72
2023/09/17 00:20:13;;;;;;;1999.90;999.90;;;15.60;91.20;;;;;;5042624;28;20034;-72
2023/09/17 00:22:39;;;;;;;1999.90;999.90;;;15.70;91.20;;;;;;5036707;28;20046;-72
2023/09/17 00:25:05;;;;;;;1999.90;999.90;;;15.50;91.30;;;;;;5034772;28;20660;-73
2023/09/17 00:27:32;;;;;;;1999.90;999.90;;;15.50;91.40;;;;;;5038462;28;20102;-72
2023/09/17 00:29:57;;;;;;;1999.90;999.90;;;15.50;91.10;;;;;;5035571;28;20064;-73
2023/09/17 00:32:23;;;;;;;1999.90;999.90;;;15.40;91.20;;;;;;5040465;28;20033;-72
2023/09/17 00:34:49;;;;;;;1999.90;999.90;;;15.30;91.50;;;;;;5040048;28;20091;-72
2023/09/17 00:37:14;;;;;;;1999.90;999.90;;;15.30;91.70;;;;;;5040958;28;20037;-72
2023/09/17 00:39:40;;;;;;;1999.90;999.90;;;15.20;92.20;;;;;;5041538;28;20645;-72
2023/09/17 00:42:06;;;;;;;1999.90;999.90;;;15.20;92.30;;;;;;5038633;28;20037;-72
2023/09/17 00:44:32;;;;;;;1999.90;999.90;;;15.10;92.30;;;;;;5073912;28;20033;-73
2023/09/17 00:47:00;;;;;;;1999.90;999.90;;;15.10;92.30;;;;;;5045864;28;20496;-72
2023/09/17 00:49:27;;;;;;;1999.90;999.90;;;15.00;92.30;;;;;;5038848;28;20059;-72
2023/09/17 00:51:53;;;;;;;1999.90;999.90;;;15.10;92.60;;;;;;5038234;28;20053;-72
2023/09/17 00:54:21;;;;;;;1999.90;999.90;;;15.10;92.70;;;;;;5036940;28;20033;-72
2023/09/17 00:56:47;;;;;;;1999.90;999.90;;;15.00;92.80;;;;;;5037365;28;20029;-72
2023/09/17 00:59:13;;;;;;;1999.90;999.90;;;15.00;93.00;;;;;;5040011;28;20037;-73
2023/09/17 01:01:39;;;;;;;1999.90;999.90;;;15.00;93.40;;;;;;5043443;28;20035;-72
2023/09/17 01:04:07;;;;;;;1999.90;999.90;;;15.00;93.50;;;;;;5035351;28;20442;-72
2023/09/17 01:06:34;;;;;;;1999.90;999.90;;;15.00;93.70;;;;;;5037709;28;20025;-72
2023/09/17 01:09:00;;;;;;;1999.90;999.90;;;14.90;93.60;;;;;;5032575;28;20491;-72
2023/09/17 01:11:26;;;;;;;1999.90;999.90;;;14.90;93.70;;;;;;5038315;28;20037;-72
2023/09/17 01:14:07;;;;;;;1999.90;999.90;;;14.90;93.70;;;;;;5036456;28;20041;-72
2023/09/17 01:16:33;;;;;;;1999.90;999.90;;;14.90;93.70;;;;;;5036110;28;20061;-73
2023/09/17 01:19:00;;;;;;;1999.90;999.90;;;14.80;94.10;;;;;;5041715;28;20034;-72
2023/09/17 01:21:41;;;;;;;1999.90;999.90;;;14.90;93.80;;;;;;5035776;28;20603;-72
2023/09/17 01:24:19;;;;;;;1999.90;999.90;;;15.00;93.70;;;;;;5037273;28;20021;-72
2023/09/17 01:26:55;;;;;;;1999.90;999.90;;;15.10;93.60;;;;;;5036638;28;20074;-72
2023/09/17 01:29:23;;;;;;;1999.90;999.90;;;15.10;93.70;;;;;;5038835;28;20091;-72
2023/09/17 01:31:48;;;;;;;1999.90;999.90;;;15.10;93.60;;;;;;5041980;28;20037;-72
2023/09/17 01:34:14;;;;;;;1999.90;999.90;;;15.10;93.60;;;;;;5038175;28;20036;-73
2023/09/17 01:36:42;;;;;;;1999.90;999.90;;;15.00;93.60;;;;;;5039334;28;20080;-73
2023/09/17 01:39:22;;;;;;;1999.90;999.90;;;15.00;93.50;;;;;;5040697;28;20037;-72
2023/09/17 01:41:49;;;;;;;1999.90;999.90;;;14.90;93.60;;;;;;5038621;28;20112;-72
2023/09/17 01:44:15;;;;;;;1999.90;999.90;;;14.90;93.50;;;;;;5071823;28;20041;-72
2023/09/17 01:46:42;;;;;;;1999.90;999.90;;;14.80;93.70;;;;;;5042059;28;20037;-72
2023/09/17 01:49:10;;;;;;;1999.90;999.90;;;14.80;93.70;;;;;;5034280;28;20514;-72
2023/09/17 01:51:38;;;;;;;1999.90;999.90;;;14.80;93.70;;;;;;5033985;28;20037;-72
2023/09/17 01:54:05;;;;;;;1999.90;999.90;;;14.80;93.70;;;;;;5035185;28;20039;-70
2023/09/17 01:56:39;;;;;;;1999.90;999.90;;;14.80;93.80;;;;;;5040173;28;20029;-73
2023/09/17 01:59:04;;;;;;;1999.90;999.90;;;14.80;93.80;;;;;;5036135;28;20037;-73
2023/09/17 02:01:30;;;;;;;1999.90;999.90;;;14.70;94.20;;;;;;5034616;28;20375;-73
2023/09/17 02:03:57;;;;;;;1999.90;999.90;;;14.80;94.30;;;;;;5038976;28;20082;-73
2023/09/17 02:06:23;;;;;;;1999.90;999.90;;;14.80;94.30;;;;;;5040026;28;20407;-73
2023/09/17 02:08:49;;;;;;;1999.90;999.90;;;14.80;94.40;;;;;;5045907;28;20473;-73
2023/09/17 02:11:14;;;;;;;1999.90;999.90;;;14.90;94.50;;;;;;5036075;28;20083;-73
2023/09/17 02:13:40;;;;;;;1999.90;999.90;;;14.90;94.50;;;;;;5042176;28;20041;-73
2023/09/17 02:16:07;;;;;;;1999.90;999.90;;;15.00;94.60;;;;;;5037516;28;20033;-73
2023/09/17 02:18:32;;;;;;;1999.90;999.90;;;14.90;94.50;;;;;;5036737;28;20029;-73
2023/09/17 02:20:58;;;;;;;1999.90;999.90;;;14.80;94.50;;;;;;5041780;28;20036;-73
2023/09/17 02:23:24;;;;;;;1999.90;999.90;;;14.90;94.60;;;;;;5034454;28;20026;-72
2023/09/17 02:25:49;;;;;;;1999.90;999.90;;;15.00;94.80;;;;;;5038508;28;20479;-73
2023/09/17 02:28:15;;;;;;;1999.90;999.90;;;15.10;94.80;;;;;;5042184;28;20034;-73
2023/09/17 02:30:41;;;;;;;1999.90;999.90;;;15.20;94.70;;;;;;5040677;28;20136;-73
2023/09/17 02:33:10;;;;;;;1999.90;999.90;;;15.10;94.60;;;;;;5043142;28;20601;-72
2023/09/17 02:35:38;;;;;;;1999.90;999.90;;;15.30;94.70;;;;;;5038017;28;20037;-73
2023/09/17 02:38:04;;;;;;;1999.90;999.90;;;15.30;94.60;;;;;;5038055;28;20090;-73
2023/09/17 02:40:29;;;;;;;1999.90;999.90;;;15.40;94.60;;;;;;5037983;28;20447;-73
2023/09/17 02:42:55;;;;;;;1999.90;999.90;;;15.40;94.60;;;;;;5036370;28;20060;-73
2023/09/17 02:45:21;;;;;;;1999.90;999.90;;;15.40;94.50;;;;;;5037081;28;20030;-73
2023/09/17 02:47:46;;;;;;;1999.90;999.90;;;15.40;94.60;;;;;;5039495;28;20048;-72
2023/09/17 02:50:12;;;;;;;1999.90;999.90;;;15.50;94.50;;;;;;5030688;28;20041;-72
2023/09/17 02:52:39;;;;;;;1999.90;999.90;;;15.50;94.50;;;;;;5035245;28;20156;-72
2023/09/17 02:55:05;;;;;;;1999.90;999.90;;;15.50;94.50;;;;;;5033810;28;20029;-73
2023/09/17 02:57:31;;;;;;;1999.90;999.90;;;15.50;94.50;;;;;;5037489;28;20101;-72
2023/09/17 02:59:57;;;;;;;1999.90;999.90;;;15.50;94.40;;;;;;5028895;28;20466;-72
2023/09/17 03:02:22;;;;;;;1999.90;999.90;;;15.50;94.40;;;;;;5033056;28;20040;-73
2023/09/17 03:04:52;;;;;;;1999.90;999.90;;;15.40;94.40;;;;;;5033264;28;20052;-72
2023/09/17 03:07:18;;;;;;;1999.90;999.90;;;15.50;94.30;;;;;;5033232;28;20041;-72
2023/09/17 03:09:45;;;;;;;1999.90;999.90;;;15.50;94.30;;;;;;5039399;28;20033;-72
2023/09/17 03:12:11;;;;;;;1999.90;999.90;;;15.50;94.30;;;;;;5035260;28;20108;-72
2023/09/17 03:14:36;;;;;;;1999.90;999.90;;;15.50;94.30;;;;;;5036932;28;20124;-73
2023/09/17 03:17:05;;;;;;;1999.90;999.90;;;15.50;94.30;;;;;;5041911;28;20068;-73
2023/09/17 03:19:31;;;;;;;1999.90;999.90;;;15.50;94.30;;;;;;5035391;28;20133;-73
2023/09/17 03:21:56;;;;;;;1999.90;999.90;;;15.50;94.30;;;;;;5037774;28;20061;-73
2023/09/17 03:24:22;;;;;;;1999.90;999.90;;;15.40;94.30;;;;;;5033492;28;20060;-73
2023/09/17 03:26:49;;;;;;;1999.90;999.90;;;15.40;94.30;;;;;;5040352;28;20040;-74
2023/09/17 03:29:15;;;;;;;1999.90;999.90;;;15.40;94.30;;;;;;5036262;28;20056;-73
2023/09/17 03:31:41;;;;;;;1999.90;999.90;;;15.50;94.30;;;;;;5037389;28;20373;-73
2023/09/17 03:34:07;;;;;;;1999.90;999.90;;;15.50;94.30;;;;;;5040047;28;20120;-74
2023/09/17 03:36:36;;;;;;;1999.90;999.90;;;15.50;94.30;;;;;;5033797;28;20040;-73
2023/09/17 03:39:01;;;;;;;1999.90;999.90;;;15.50;94.30;;;;;;5035686;28;20553;-73
2023/09/17 03:41:27;;;;;;;1999.90;999.90;;;15.60;94.20;;;;;;5036235;28;20037;-73
2023/09/17 03:43:52;;;;;;;1999.90;999.90;;;15.60;94.20;;;;;;5040710;28;20041;-73
2023/09/17 03:46:21;;;;;;;1999.90;999.90;;;15.60;94.10;;;;;;5028687;28;20034;-73
2023/09/17 03:48:47;;;;;;;1999.90;999.90;;;15.70;94.00;;;;;;5034815;28;20033;-73
2023/09/17 03:51:12;;;;;;;1999.90;999.90;;;15.60;93.90;;;;;;5034251;28;20087;-73
2023/09/17 03:53:39;;;;;;;1999.90;999.90;;;15.60;94.00;;;;;;5030580;28;20029;-73
2023/09/17 03:56:05;;;;;;;1999.90;999.90;;;15.60;93.90;;;;;;5035263;28;20652;-73
2023/09/17 03:58:31;;;;;;;1999.90;999.90;;;15.60;93.90;;;;;;5034920;28;20026;-73
2023/09/17 04:00:56;;;;;;;1999.90;999.90;;;15.70;93.90;;;;;;5037096;28;20028;-74
2023/09/17 04:03:22;;;;;;;1999.90;999.90;;;15.70;93.90;;;;;;5032547;28;20488;-73
2023/09/17 04:05:50;;;;;;;1999.90;999.90;;;15.70;93.90;;;;;;5036465;28;20021;-73
2023/09/17 04:08:16;;;;;;;1999.90;999.90;;;15.80;93.80;;;;;;5039683;28;20495;-73
2023/09/17 04:10:43;;;;;;;1999.90;999.90;;;15.70;93.70;;;;;;5039392;28;20090;-73
2023/09/17 04:13:09;;;;;;;1999.90;999.90;;;15.70;93.60;;;;;;5038869;28;20026;-73
2023/09/17 04:15:36;;;;;;;1999.90;999.90;;;15.70;93.50;;;;;;5044452;28;20047;-73
2023/09/17 04:18:04;;;;;;;1999.90;999.90;;;15.70;93.50;;;;;;5041307;28;20499;-73
2023/09/17 04:20:30;;;;;;;1999.90;999.90;;;15.80;94.00;;;;;;5039610;28;20036;-73
2023/09/17 04:22:56;;;;;;;1999.90;999.90;;;15.80;93.60;;;;;;5041716;28;20028;-72
2023/09/17 04:25:22;;;;;;;1999.90;999.90;;;15.70;93.60;;;;;;5036677;28;20029;-73
2023/09/17 04:27:47;;;;;;;1999.90;999.90;;;15.70;93.80;;;;;;5045268;28;20410;-73
2023/09/17 04:30:14;;;;;;;1999.90;999.90;;;15.70;93.90;;;;;;5043571;28;20641;-73
2023/09/17 04:32:42;;;;;;;1999.90;999.90;;;15.70;93.70;;;;;;5043409;28;20038;-73
2023/09/17 04:35:10;;;;;;;1999.90;999.90;;;15.70;93.60;;;;;;5044200;28;20368;-72
2023/09/17 04:37:37;;;;;;;1999.90;999.90;;;15.60;93.70;;;;;;5036856;28;20657;-73
2023/09/17 04:40:13;;;;;;;1999.90;999.90;;;15.60;93.80;;;;;;5040564;28;20422;-73
2023/09/17 04:42:46;;;;;;;1999.90;999.90;;;15.60;94.10;;;;;;5037129;28;20025;-73
2023/09/17 04:45:29;;;;;;;1999.90;999.90;;;15.60;94.10;;;;;;5039337;28;20100;-73
2023/09/17 04:47:55;;;;;;;1999.90;999.90;;;15.60;94.10;;;;;;5033461;28;20037;-73
2023/09/17 04:50:21;;;;;;;1999.90;999.90;;;15.60;94.10;;;;;;5052539;28;20041;-72
2023/09/17 04:52:47;;;;;;;1999.90;999.90;;;15.70;94.10;;;;;;5041898;28;20040;-72
2023/09/17 04:55:12;;;;;;;1999.90;999.90;;;15.70;94.00;;;;;;5036615;28;20041;-73
2023/09/17 04:57:38;;;;;;;1999.90;999.90;;;15.70;94.00;;;;;;5046639;28;20494;-73
2023/09/17 05:00:10;;;;;;;1999.90;999.90;;;15.70;94.10;;;;;;5040977;28;20057;-72
2023/09/17 05:02:36;;;;;;;1999.90;999.90;;;15.70;94.00;;;;;;5038286;28;20029;-73
2023/09/17 05:05:02;;;;;;;1999.90;999.90;;;15.70;94.10;;;;;;5040340;28;20033;-73
2023/09/17 05:07:28;;;;;;;1999.90;999.90;;;15.70;94.10;;;;;;5038286;28;20403;-73
2023/09/17 05:09:53;;;;;;;1999.90;999.90;;;15.70;94.10;;;;;;5039136;28;20483;-73
2023/09/17 05:12:19;;;;;;;1999.90;999.90;;;15.70;94.10;;;;;;5038669;28;20124;-73
2023/09/17 05:14:44;;;;;;;1999.90;999.90;;;15.70;94.20;;;;;;5042471;28;20443;-73
2023/09/17 05:17:10;;;;;;;1999.90;999.90;;;15.70;94.20;;;;;;5038942;28;20037;-73
2023/09/17 05:19:36;;;;;;;1999.90;999.90;;;15.80;94.30;;;;;;5032965;28;20029;-73
2023/09/17 05:22:01;;;;;;;1999.90;999.90;;;15.70;94.30;;;;;;5042667;28;20395;-73
2023/09/17 05:24:27;;;;;;;1999.90;999.90;;;15.80;94.30;;;;;;5036785;28;20040;-73
2023/09/17 05:26:53;;;;;;;1999.90;999.90;;;15.80;94.20;;;;;;5041824;28;20040;-73
2023/09/17 05:29:18;;;;;;;1999.90;999.90;;;15.80;94.30;;;;;;5039885;28;20040;-73
2023/09/17 05:31:44;;;;;;;1999.90;999.90;;;15.80;94.30;;;;;;5038930;28;20512;-73
2023/09/17 05:34:10;;;;;;;1999.90;999.90;;;15.80;94.40;;;;;;5038971;28;20095;-73
2023/09/17 05:36:35;;;;;;;1999.90;999.90;;;15.80;94.40;;;;;;5040006;28;20499;-73
2023/09/17 05:39:02;;;;;;;1999.90;999.90;;;15.80;94.30;;;;;;5032616;28;20372;-74
2023/09/17 05:41:28;;;;;;;1999.90;999.90;;;15.90;94.30;;;;;;5035567;28;20057;-73
2023/09/17 05:43:53;;;;;;;1999.90;999.90;;;15.90;94.30;;;;;;5037485;28;20065;-73
2023/09/17 05:46:19;;;;;;;1999.90;999.90;;;15.90;94.30;;;;;;5032170;28;20037;-73
2023/09/17 05:48:45;;;;;;;1999.90;999.90;;;15.90;94.20;;;;;;5039553;28;20040;-73
2023/09/17 05:51:10;;;;;;;1999.90;999.90;;;16.00;94.20;;;;;;5035516;28;20037;-73
2023/09/17 05:53:36;;;;;;;1999.90;999.90;;;16.10;94.10;;;;;;5038365;28;20403;-73
2023/09/17 05:56:04;;;;;;;1999.90;999.90;;;16.10;93.90;;;;;;5044529;28;20034;-73
2023/09/17 05:58:30;;;;;;;1999.90;999.90;;;16.20;93.90;;;;;;5034497;28;20040;-73
2023/09/17 06:00:55;;;;;;;1999.90;999.90;;;16.20;93.60;;;;;;5032828;28;20029;-75
2023/09/17 06:03:22;;;;;;;1999.90;999.90;;;16.30;93.60;;;;;;5038540;28;20398;-74
2023/09/17 06:05:49;;;;;;;1999.90;999.90;;;16.40;93.60;;;;;;5040813;28;20032;-74
2023/09/17 06:08:15;;;;;;;1999.90;999.90;;;16.40;93.40;;;;;;5039668;28;20443;-74
2023/09/17 06:10:40;;;;;;;1999.90;999.90;;;16.60;93.40;;;;;;5041556;28;20065;-74
2023/09/17 06:13:07;;;;;;;1999.90;999.90;;;16.70;93.30;;;;;;5041311;28;20033;-75
2023/09/17 06:15:32;;;;;;;1999.90;999.90;;;16.80;93.30;;;;;;5041042;28;20506;-75
2023/09/17 06:17:58;;;;;;;1999.90;999.90;;;17.00;93.10;;;;;;5041491;28;20041;-75
2023/09/17 06:20:23;;;;;;;1999.90;999.90;;;17.20;93.10;;;;;;5041250;28;20479;-74
2023/09/17 06:22:49;;;;;;;1999.90;999.90;;;17.40;92.70;;;;;;5034121;28;20037;-74
2023/09/17 06:25:15;;;;;;;1999.90;999.90;;;17.50;92.30;;;;;;5035568;28;20037;-75
2023/09/17 06:27:41;;;;;;;1999.90;999.90;;;17.60;92.20;;;;;;5040488;28;20053;-74
2023/09/17 06:30:07;;;;;;;1999.90;999.90;;;17.80;92.00;;;;;;5035846;28;20060;-74
2023/09/17 06:32:33;;;;;;;1999.90;999.90;;;17.90;91.70;;;;;;5040305;28;20041;-73
2023/09/17 06:34:59;;;;;;;1999.90;999.90;;;18.10;91.80;;;;;;5038272;28;20033;-74
2023/09/17 06:37:25;;;;;;;1999.90;999.90;;;18.20;91.20;;;;;;5035680;28;20037;-74
2023/09/17 06:39:50;;;;;;;1999.90;999.90;;;18.30;91.00;;;;;;5039158;28;20021;-74
2023/09/17 06:42:16;;;;;;;1999.90;999.90;;;18.50;90.80;;;;;;5037256;28;20040;-74
2023/09/17 06:44:42;;;;;;;1999.90;999.90;;;18.50;90.30;;;;;;5038286;28;20437;-74
2023/09/17 06:47:07;;;;;;;1999.90;999.90;;;18.50;90.40;;;;;;5036038;28;20029;-73
2023/09/17 06:49:34;;;;;;;1999.90;999.90;;;18.60;90.30;;;;;;5036452;28;20033;-74
2023/09/17 06:51:59;;;;;;;1999.90;999.90;;;18.80;90.20;;;;;;5021193;28;20029;-73
2023/09/17 06:54:25;;;;;;;1999.90;999.90;;;18.80;90.20;;;;;;5038622;28;20106;-74
2023/09/17 06:56:52;;;;;;;1999.90;999.90;;;19.00;90.00;;;;;;5033632;28;20519;-74
2023/09/17 06:59:18;;;;;;;1999.90;999.90;;;19.30;89.80;;;;;;5037530;28;20036;-73
2023/09/17 07:01:45;;;;;;;1999.90;999.90;;;19.40;88.70;;;;;;5041964;28;20407;-74
2023/09/17 07:04:11;;;;;;;1999.90;999.90;;;19.40;88.00;;;;;;5030032;28;20385;-73
2023/09/17 07:06:36;;;;;;;1999.90;999.90;;;19.60;87.60;;;;;;5033259;28;20052;-74
2023/09/17 07:09:03;;;;;;;1999.90;999.90;;;19.50;86.80;;;;;;5033538;28;20107;-74
2023/09/17 07:11:29;;;;;;;1999.90;999.90;;;19.60;86.70;;;;;;5034461;28;20033;-74
2023/09/17 07:13:57;;;;;;;1999.90;999.90;;;19.50;86.40;;;;;;5036856;28;20036;-74
2023/09/17 07:16:24;;;;;;;1999.90;999.90;;;19.70;86.50;;;;;;5037549;28;20033;-73
2023/09/17 07:18:50;;;;;;;1999.90;999.90;;;19.70;85.90;;;;;;5033424;28;20021;-73
2023/09/17 07:21:16;;;;;;;1999.90;999.90;;;19.80;86.10;;;;;;5037608;28;20104;-73
2023/09/17 07:23:42;;;;;;;1999.90;999.90;;;19.70;86.00;;;;;;5041258;28;20060;-73
2023/09/17 07:26:09;;;;;;;1999.90;999.90;;;19.70;85.20;;;;;;5037262;28;20112;-73
2023/09/17 07:28:35;;;;;;;1999.90;999.90;;;19.90;85.00;;;;;;5042023;28;20033;-72
2023/09/17 07:31:01;;;;;;;1999.90;999.90;;;20.00;84.00;;;;;;5030664;28;20527;-73
2023/09/17 07:33:27;;;;;;;1999.90;999.90;;;20.10;83.70;;;;;;5033632;28;20032;-73
2023/09/17 07:35:54;;;;;;;1999.90;999.90;;;20.20;84.00;;;;;;5032717;28;20060;-72
2023/09/17 07:38:20;;;;;;;1999.90;999.90;;;20.30;82.40;;;;;;5029986;28;20057;-73
2023/09/17 07:40:47;;;;;;;1999.90;999.90;;;20.50;82.60;;;;;;5031927;28;20143;-72
2023/09/17 07:43:13;;;;;;;1999.90;999.90;;;20.50;81.20;;;;;;5034992;28;20022;-72
2023/09/17 07:45:38;;;;;;;1999.90;999.90;;;20.60;80.50;;;;;;5034837;28;20038;-73
2023/09/17 07:48:04;;;;;;;1999.90;999.90;;;20.70;80.80;;;;;;5037401;28;20037;-73
2023/09/17 07:50:30;;;;;;;1999.90;999.90;;;20.90;79.50;;;;;;5036527;28;20044;-74
2023/09/17 07:52:56;;;;;;;1999.90;999.90;;;21.20;78.00;;;;;;5035241;28;20033;-75
2023/09/17 07:55:22;;;;;;;1999.90;999.90;;;21.70;77.50;;;;;;5035783;28;20041;-75
2023/09/17 07:57:47;;;;;;;1999.90;999.90;;;21.90;76.50;;;;;;5034054;28;20064;-76
2023/09/17 08:00:15;;;;;;;1999.90;999.90;;;21.80;74.30;;;;;;5034830;28;20036;-76
2023/09/17 08:02:44;;;;;;;1999.90;999.90;;;21.90;73.30;;;;;;5022619;28;20033;-75
2023/09/17 08:05:10;;;;;;;1999.90;999.90;;;22.00;72.90;;;;;;5034138;28;20041;-75
2023/09/17 08:07:36;;;;;;;1999.90;999.90;;;22.10;71.00;;;;;;5037823;28;20033;-75
2023/09/17 08:10:03;;;;;;;1999.90;999.90;;;22.20;72.20;;;;;;5035361;28;20037;-75
2023/09/17 08:12:31;;;;;;;1999.90;999.90;;;22.40;72.80;;;;;;5037281;28;20473;-74
2023/09/17 08:14:57;;;;;;;1999.90;999.90;;;22.60;69.40;;;;;;5036593;28;20040;-73
2023/09/17 08:17:23;;;;;;;1999.90;999.90;;;22.70;71.50;;;;;;5034583;28;20029;-75
2023/09/17 08:19:49;;;;;;;1999.90;999.90;;;23.00;68.20;;;;;;5031134;28;20558;-74
2023/09/17 08:22:15;;;;;;;1999.90;999.90;;;22.80;69.00;;;;;;5037756;28;20069;-73
2023/09/17 08:24:41;;;;;;;1999.90;999.90;;;23.20;67.90;;;;;;5032326;28;20041;-74
2023/09/17 08:27:07;;;;;;;1999.90;999.90;;;23.30;66.40;;;;;;5028059;28;20545;-74
2023/09/17 08:29:33;;;;;;;1999.90;999.90;;;23.80;67.80;;;;;;5030080;28;20094;-74
2023/09/17 08:31:59;;;;;;;1999.90;999.90;;;24.00;63.90;;;;;;5030975;28;20140;-74
2023/09/17 08:34:25;;;;;;;1999.90;999.90;;;24.30;65.70;;;;;;5028975;28;20048;-73
2023/09/17 08:36:51;;;;;;;1999.90;999.90;;;24.50;62.40;;;;;;5036758;28;20056;-72
2023/09/17 08:39:17;;;;;;;1999.90;999.90;;;24.40;64.80;;;;;;5036322;28;20057;-73
2023/09/17 08:41:43;;;;;;;1999.90;999.90;;;24.50;63.30;;;;;;5034646;28;20165;-73
2023/09/17 08:44:09;;;;;;;1999.90;999.90;;;24.80;64.40;;;;;;5027181;28;20033;-73
2023/09/17 08:46:36;;;;;;;1999.90;999.90;;;24.50;64.10;;;;;;5032309;28;20033;-72
2023/09/17 08:49:02;;;;;;;1999.90;999.90;;;24.10;62.40;;;;;;5033729;28;20080;-73
2023/09/17 08:51:37;;;;;;;1999.90;999.90;;;24.10;61.70;;;;;;5035185;28;20037;-75
2023/09/17 08:54:12;;;;;;;1999.90;999.90;;;24.20;64.00;;;;;;5038944;28;20032;-72
2023/09/17 08:56:42;;;;;;;1999.90;999.90;;;23.80;67.70;;;;;;5036602;28;20141;-72
2023/09/17 08:59:12;;;;;;;1999.90;999.90;;;24.10;63.50;;;;;;5035377;28;20121;-72
2023/09/17 09:01:44;;;;;;;1999.90;999.90;;;24.20;63.30;;;;;;5043206;28;20094;-72
2023/09/17 09:04:10;;;;;;;1999.90;999.90;;;24.40;63.50;;;;;;5037368;28;20032;-72
2023/09/17 09:06:38;;;;;;;1999.90;999.90;;;24.20;62.30;;;;;;5042218;28;20067;-72
2023/09/17 09:09:07;;;;;;;1999.90;999.90;;;23.90;64.10;;;;;;5038365;28;20780;-73
2023/09/17 09:11:37;;;;;;;1999.90;999.90;;;23.60;66.40;;;;;;5036453;28;20034;-74
2023/09/17 09:14:07;;;;;;;1999.90;999.90;;;23.70;67.80;;;;;;5030642;28;20112;-74
2023/09/17 09:16:34;;;;;;;1999.90;999.90;;;23.60;66.70;;;;;;5045777;28;20094;-73
2023/09/17 09:19:00;;;;;;;1999.90;999.90;;;24.20;65.60;;;;;;5033407;28;20398;-72
2023/09/17 09:21:28;;;;;;;1999.90;999.90;;;24.10;67.10;;;;;;5039543;28;20030;-73
2023/09/17 09:23:57;;;;;;;1999.90;999.90;;;24.00;65.50;;;;;;5036598;28;20152;-73
2023/09/17 09:26:35;;;;;;;1999.90;999.90;;;23.80;64.60;;;;;;5038351;28;20041;-73
2023/09/17 09:29:01;;;;;;;1999.90;999.90;;;23.90;63.20;;;;;;5040414;28;20132;-74
2023/09/17 09:31:29;;;;;;;1999.90;999.90;;;23.90;63.00;;;;;;5034934;28;20539;-73
2023/09/17 09:33:59;;;;;;;1999.90;999.90;;;23.80;64.10;;;;;;5039456;28;20053;-73
2023/09/17 09:36:27;;;;;;;;;;;23.90;66.20;;;;;;5036511;28;20033;-73
2023/09/17 09:38:54;;;;;;;1999.90;999.90;;;24.20;65.40;;;;;;5040468;28;20011;-73
2023/09/17 09:41:21;;;;;;;1999.90;999.90;;;24.60;63.20;;;;;;5038230;28;20177;-73
2023/09/17 09:43:47;;;;;;;1999.90;999.90;;;24.50;61.60;;;;;;5037845;28;20041;-73
2023/09/17 09:46:14;;;;;;;1999.90;999.90;;;24.40;62.50;;;;;;5033644;28;20144;-75
2023/09/17 09:48:41;;;;;;;1999.90;999.90;;;24.30;63.00;;;;;;5038918;28;20467;-72
2023/09/17 09:51:07;;;;;;;1999.90;999.90;;;24.20;60.70;;;;;;5038533;28;20039;-72
2023/09/17 09:53:32;;;;;;;1999.90;999.90;;;24.00;62.50;;;;;;5041839;28;20029;-72
2023/09/17 09:55:58;;;;;;;1999.90;999.90;;;23.90;61.60;;;;;;5035385;28;20039;-72
2023/09/17 09:58:25;;;;;;;1999.90;999.90;;;24.30;60.00;;;;;;5038249;28;20037;-72
2023/09/17 10:00:51;;;;;;;1999.90;999.90;;;24.60;58.80;;;;;;5040309;28;20029;-72
2023/09/17 10:03:20;;;;;;;1999.90;999.90;;;24.50;61.60;;;;;;5029011;28;20411;-75
2023/09/17 10:05:47;;;;;;;1999.90;999.90;;;24.90;60.40;;;;;;5031942;28;20029;-72
2023/09/17 10:08:15;;;;;;;1999.90;999.90;;;24.60;61.40;;;;;;5031137;28;20037;-73
2023/09/17 10:10:42;;;;;;;1999.90;999.90;;;24.90;55.60;;;;;;5035727;28;20081;-73
2023/09/17 10:13:11;;;;;;;1999.90;999.90;;;25.30;57.40;;;;;;5033915;28;20062;-73
2023/09/17 10:15:39;;;;;;;1999.90;999.90;;;25.40;56.20;;;;;;5035638;28;20044;-73
2023/09/17 10:18:12;;;;;;;1999.90;999.90;;;25.50;53.20;;;;;;5029639;28;20464;-72
2023/09/17 10:20:42;;;;;;;1999.90;999.90;;;25.30;53.20;;;;;;5036644;28;20145;-73
2023/09/17 10:23:09;;;;;;;;;;;25.20;53.50;;;;;;5034547;28;20029;-72
2023/09/17 10:25:37;;;;;;;1999.90;999.90;;;25.40;53.60;;;;;;5035689;28;19917;-72
2023/09/17 10:28:05;;;;;;;1999.90;999.90;;;25.60;55.40;;;;;;5038805;28;20033;-73
2023/09/17 10:30:32;;;;;;;1999.90;999.90;;;25.60;58.00;;;;;;5035170;28;20079;-73
2023/09/17 10:33:00;;;;;;;1999.90;999.90;;;25.80;52.50;;;;;;5035510;28;20128;-72
2023/09/17 10:35:27;;;;;;;1999.90;999.90;;;25.70;54.90;;;;;;5037013;28;20033;-73
2023/09/17 10:37:57;;;;;;;1999.90;999.90;;;25.90;55.80;;;;;;5035117;28;20045;-73
2023/09/17 10:40:25;;;;;;;1999.90;999.90;;;26.50;50.70;;;;;;5037345;28;20056;-73
2023/09/17 10:42:53;;;;;;;1999.90;999.90;;;26.80;47.60;;;;;;5038568;28;20471;-74
2023/09/17 10:45:20;;;;;;;1999.90;999.90;;;27.30;49.70;;;;;;5034624;28;20025;-74
2023/09/17 10:47:52;;;;;;;1999.90;999.90;;;27.50;46.60;;;;;;5067785;28;20543;-73
2023/09/17 10:50:19;;;;;;;1999.90;999.90;;;27.40;46.60;;;;;;5030151;28;20132;-74
2023/09/17 10:52:44;;;;;;;1999.90;999.90;;;27.60;47.50;;;;;;5034285;28;20064;-80
2023/09/17 10:55:11;;;;;;;1999.90;999.90;;;27.70;48.10;;;;;;5064115;28;20087;-74
2023/09/17 10:57:47;;;;;;;1999.90;999.90;;;27.80;45.30;;;;;;5038502;28;20407;-75
2023/09/17 11:00:18;;;;;;;1999.90;999.90;;;28.00;47.00;;;;;;5036641;28;20029;-76
2023/09/17 11:02:53;;;;;;;1999.90;999.90;;;28.30;48.20;;;;;;5043544;28;20029;-76
2023/09/17 11:05:22;;;;;;;1999.90;999.90;;;28.40;44.70;;;;;;5037151;28;20029;-75
2023/09/17 11:07:48;;;;;;;1999.90;999.90;;;28.10;46.80;;;;;;5035804;28;20091;-75
2023/09/17 11:10:14;;;;;;;1999.90;999.90;;;28.50;45.40;;;;;;5041529;28;20435;-75
2023/09/17 11:12:41;;;;;;;1999.90;999.90;;;28.80;43.30;;;;;;5041492;28;20033;-75
2023/09/17 11:15:09;;;;;;;1999.90;999.90;;;28.50;41.60;;;;;;5039898;28;20045;-77
2023/09/17 11:17:35;;;;;;;1999.90;999.90;;;28.70;43.30;;;;;;5031906;28;20025;-75
2023/09/17 11:20:07;;;;;;;1999.90;999.90;;;28.80;44.30;;;;;;5034810;28;20040;-76
2023/09/17 11:22:38;;;;;;;1999.90;999.90;;;29.50;39.90;;;;;;5036438;28;20025;-75
2023/09/17 11:25:07;;;;;;;1999.90;999.90;;;29.70;42.60;;;;;;5037918;28;20055;-75
2023/09/17 11:27:51;;;;;;;1999.90;999.90;;;29.10;40.60;;;;;;5042741;28;20079;-75
2023/09/17 11:30:23;;;;;;;1999.90;999.90;;;29.10;42.50;;;;;;5040695;28;20075;-75
2023/09/17 11:32:58;;;;;;;1999.90;999.90;;;29.10;42.50;;;;;;5037403;28;20063;-75
2023/09/17 11:35:25;;;;;;;1999.90;999.90;;;29.50;42.00;;;;;;5039931;28;20086;-76
2023/09/17 11:37:51;;;;;;;1999.90;999.90;;;29.00;40.10;;;;;;5033104;28;20045;-75
2023/09/17 11:40:18;;;;;;;1999.90;999.90;;;29.20;42.50;;;;;;5038300;28;20029;-75
2023/09/17 11:42:46;;;;;;;1999.90;999.90;;;29.10;42.40;;;;;;5026699;28;20031;-75
2023/09/17 11:45:14;;;;;;;1999.90;999.90;;;29.60;39.00;;;;;;5034112;28;20116;-77
2023/09/17 11:47:40;;;;;;;1999.90;999.90;;;29.90;39.10;;;;;;5033886;28;20110;-75
2023/09/17 11:50:08;;;;;;;1999.90;999.90;;;29.80;38.00;;;;;;5031671;28;20020;-75
2023/09/17 11:52:35;;;;;;;1999.90;999.90;;;29.90;37.00;;;;;;5031239;28;20499;-73
2023/09/17 11:55:07;;;;;;;1999.90;999.90;;;30.00;35.60;;;;;;5032249;28;20045;-78
2023/09/17 11:57:34;;;;;;;1999.90;999.90;;;29.90;37.20;;;;;;5031815;28;20043;-76
2023/09/17 12:00:00;;;;;;;1999.90;999.90;;;30.00;36.50;;;;;;5036568;28;20031;-75